Achilles, Virginia
Current Conditions -  °F | °C
As of 11:27 AM on Thursday 27 Nov 2014 (Local Time) from KPHF Reporting Station
Light Rain Light Rain  
Wind Chill: 42°   Ceiling: 1100
Heat Index: 45°   Visibility: 6mi
Dew Point: 40°   Wind: 6mph
Humidity: 82%   Direction: 240°WSW
Pressure: 30.05"   Gusts: NA
Location:  37.28°N, 76.44°W
Report Text: KPHF 271627Z 24005KT 6SM -RA BKN011 OVC027 07/04 A3005 RMK AO2 P0000 T00720044
Loading
Personal Weather Stations






























Interactive Weather Map New forecast layout! Learn more

10-Day Weather Forecast

Advertisements
Track Severe Weather on mobile